createdAt,value
2019-01-19T00:01:00.632Z,100796.22
2019-01-19T00:03:51.108Z,100790.11
2019-01-19T00:06:30.973Z,100792.98
2019-01-19T00:09:01.932Z,100787.41
2019-01-19T00:11:36.320Z,100787.53
2019-01-19T00:14:13.866Z,100784.15
2019-01-19T00:16:48.158Z,100779.92
2019-01-19T00:19:45.679Z,100778.14
2019-01-19T00:22:39.277Z,100778.14
2019-01-19T00:25:39.530Z,100776.00
2019-01-19T00:28:11.898Z,100771.77
2019-01-19T00:30:48.876Z,100777.45
2019-01-19T00:33:25.281Z,100772.21
2019-01-19T00:36:20.643Z,100775.52
2019-01-19T00:39:06.969Z,100774.84
2019-01-19T00:41:53.534Z,100768.19
2019-01-19T00:44:34.005Z,100763.95
2019-01-19T00:47:08.363Z,100768.48
2019-01-19T00:49:38.538Z,100767.84
2019-01-19T00:52:09.995Z,100764.25
2019-01-19T00:54:41.498Z,100763.56
2019-01-19T00:57:12.974Z,100771.29
2019-01-19T00:59:41.432Z,100766.34
2019-01-19T01:02:24.582Z,100767.98
2019-01-19T01:04:56.059Z,100764.25
2019-01-19T01:07:41.944Z,100762.25
2019-01-19T01:10:37.821Z,100766.14
2019-01-19T01:13:25.770Z,100758.03
2019-01-19T01:16:06.029Z,100767.06
2019-01-19T01:18:46.631Z,100760.41
2019-01-19T01:21:33.391Z,100757.88
2019-01-19T01:24:07.910Z,100756.52
2019-01-19T01:26:51.654Z,100767.75
2019-01-19T01:29:39.509Z,100766.77
2019-01-19T01:32:33.515Z,100759.97
2019-01-19T01:35:17.109Z,100756.52
2019-01-19T01:37:51.329Z,100756.72
2019-01-19T01:40:25.773Z,100754.88
2019-01-19T01:43:13.757Z,100747.58
2019-01-19T01:45:57.267Z,100746.36
2019-01-19T01:48:45.223Z,100747.92
2019-01-19T01:51:28.716Z,100744.86
2019-01-19T01:54:00.203Z,100744.86
2019-01-19T01:56:28.431Z,100742.34
2019-01-19T01:58:59.885Z,100742.97
2019-01-19T02:01:40.077Z,100733.45
2019-01-19T02:04:26.731Z,100729.74
2019-01-19T02:07:13.291Z,100740.25
2019-01-19T02:09:50.286Z,100733.83
2019-01-19T02:12:39.317Z,100731.10
2019-01-19T02:15:19.375Z,100734.55
2019-01-19T02:18:05.917Z,100730.03
2019-01-19T02:20:49.371Z,100730.09
2019-01-19T02:23:20.832Z,100730.95
2019-01-19T02:26:13.163Z,100727.22
2019-01-19T02:28:47.379Z,100724.64
2019-01-19T02:31:33.201Z,100729.36
2019-01-19T02:34:13.783Z,100733.19
2019-01-19T02:36:50.983Z,100730.09
2019-01-19T02:39:42.135Z,100723.43
2019-01-19T02:42:19.308Z,100723.09
2019-01-19T02:44:56.625Z,100715.61
2019-01-19T02:47:28.107Z,100716.97
2019-01-19T02:50:05.407Z,100714.40
2019-01-19T02:52:42.431Z,100719.50
2019-01-19T02:55:32.114Z,100710.98
2019-01-19T02:58:23.292Z,100714.92
2019-01-19T03:01:29.763Z,100714.05
2019-01-19T03:04:01.295Z,100711.77
2019-01-19T03:06:54.875Z,100705.89
2019-01-19T03:09:38.261Z,100705.55
2019-01-19T03:12:18.501Z,100706.95
2019-01-19T03:17:55.835Z,100698.88
2019-01-19T03:20:42.270Z,100703.74
2019-01-19T03:23:16.435Z,100694.86
2019-01-19T03:26:00.045Z,100694.94
2019-01-19T03:28:46.814Z,100691.34
2019-01-19T03:31:24.100Z,100696.07
2019-01-19T03:34:11.847Z,100691.64
2019-01-19T03:37:01.561Z,100682.84
2019-01-19T03:39:36.171Z,100686.05
2019-01-19T03:42:16.502Z,100678.61
2019-01-19T03:44:59.935Z,100683.91
2019-01-19T03:47:34.377Z,100682.89
2019-01-19T03:50:14.593Z,100682.02
2019-01-19T03:52:48.895Z,100679.30
2019-01-19T03:55:23.169Z,100680.66
2019-01-19T03:58:11.204Z,100681.53
2019-01-19T04:00:45.259Z,100674.87
2019-01-19T04:03:28.299Z,100669.09
2019-01-19T04:06:02.436Z,100667.92
2019-01-19T04:08:53.289Z,100663.50
2019-01-19T04:11:49.170Z,100668.94
2019-01-19T04:14:38.025Z,100665.55
2019-01-19T04:17:25.957Z,100667.05
2019-01-19T04:20:00.560Z,100656.31
2019-01-19T04:22:31.779Z,100654.02
2019-01-19T04:25:03.237Z,100652.02
2019-01-19T04:27:31.468Z,100652.51
2019-01-19T04:29:59.695Z,100658.82
2019-01-19T04:32:27.911Z,100649.14
2019-01-19T04:34:56.145Z,100651.19
2019-01-19T04:37:24.337Z,100647.26
2019-01-19T04:39:52.549Z,100653.91
2019-01-19T04:42:20.937Z,100647.26
2019-01-19T04:44:49.222Z,100652.70
2019-01-19T04:47:17.442Z,100649.98
2019-01-19T04:49:45.656Z,100642.53
2019-01-19T04:52:13.875Z,100649.00
2019-01-19T04:54:42.064Z,100655.42
2019-01-19T04:57:10.289Z,100641.47
2019-01-19T04:59:38.501Z,100642.69
2019-01-19T05:02:06.712Z,100639.09
2019-01-19T05:04:34.931Z,100634.52
2019-01-19T05:07:03.154Z,100645.41
2019-01-19T05:09:31.355Z,100642.98
2019-01-19T05:11:59.581Z,100640.98
2019-01-19T05:14:27.824Z,100633.66
2019-01-19T05:16:56.052Z,100634.22
2019-01-19T05:19:24.289Z,100628.78
2019-01-19T05:21:52.511Z,100631.30
2019-01-19T05:24:20.715Z,100631.69
2019-01-19T05:26:48.933Z,100627.76
2019-01-19T05:29:17.118Z,100633.92
2019-01-19T05:31:45.350Z,100637.36
2019-01-19T05:34:13.561Z,100632.22
2019-01-19T05:36:41.780Z,100631.01
2019-01-19T05:39:10.010Z,100634.79
2019-01-19T05:41:38.202Z,100635.12
2019-01-19T05:44:06.394Z,100638.16
2019-01-19T05:46:34.613Z,100635.66
2019-01-19T05:49:02.827Z,100631.92
2019-01-19T05:51:31.032Z,100635.09
2019-01-19T05:53:59.233Z,100634.94
2019-01-19T05:56:27.458Z,100637.66
2019-01-19T05:58:55.688Z,100641.94
2019-01-19T06:01:24.760Z,100642.31
2019-01-19T06:03:52.987Z,100640.80
2019-01-19T06:06:21.453Z,100638.42
2019-01-19T06:08:49.650Z,100634.19
2019-01-19T06:11:17.866Z,100636.91
2019-01-19T06:13:46.058Z,100639.63
2019-01-19T06:16:14.267Z,100635.36
2019-01-19T06:18:42.845Z,100634.19
2019-01-19T06:21:11.341Z,100633.47
2019-01-19T06:23:39.520Z,100627.04
2019-01-19T06:26:07.731Z,100627.69
2019-01-19T06:28:35.941Z,100626.66
2019-01-19T06:31:04.168Z,100626.89
2019-01-19T06:33:32.365Z,100632.83
2019-01-19T06:36:00.593Z,100631.81
2019-01-19T06:38:28.823Z,100628.41
2019-01-19T06:40:57.045Z,100627.23
2019-01-19T06:43:25.244Z,100622.43
2019-01-19T06:45:53.460Z,100629.46
2019-01-19T06:48:21.698Z,100627.58
2019-01-19T06:50:50.102Z,100636.12
2019-01-19T06:53:18.315Z,100636.12
2019-01-19T06:55:46.543Z,100633.40
2019-01-19T06:58:14.748Z,100631.81
2019-01-19T07:00:42.972Z,100629.09
2019-01-19T07:03:11.173Z,100637.63
2019-01-19T07:05:39.418Z,100637.33
2019-01-19T07:08:07.616Z,100634.53
2019-01-19T07:10:35.807Z,100636.95
2019-01-19T07:13:04.040Z,100637.97
2019-01-19T07:15:32.276Z,100633.24
2019-01-19T07:18:00.504Z,100635.09
2019-01-19T07:20:30.967Z,100638.16
2019-01-19T07:22:59.448Z,100640.73
2019-01-19T07:25:27.676Z,100638.88
2019-01-19T07:27:55.906Z,100640.05
2019-01-19T07:30:24.124Z,100645.34
2019-01-19T07:32:52.348Z,100645.20
2019-01-19T07:35:20.562Z,100645.84
2019-01-19T07:37:48.794Z,100642.97
2019-01-19T07:40:18.238Z,100647.92
2019-01-19T07:42:48.792Z,100649.77
2019-01-19T07:45:17.028Z,100647.39
2019-01-19T07:47:45.715Z,100645.05
2019-01-19T07:50:16.542Z,100644.17
2019-01-19T07:52:44.740Z,100647.05
2019-01-19T07:55:14.981Z,100646.18
2019-01-19T07:57:43.214Z,100651.33
2019-01-19T08:00:32.164Z,100646.41
2019-01-19T08:03:00.414Z,100645.88
2019-01-19T08:05:28.606Z,100650.04
2019-01-19T08:07:56.791Z,100650.04
2019-01-19T08:10:25.006Z,100650.38
2019-01-19T08:12:53.224Z,100649.73
2019-01-19T08:15:23.754Z,100648.38
2019-01-19T08:17:51.985Z,100654.88
2019-01-19T08:20:20.198Z,100652.50
2019-01-19T08:22:48.421Z,100652.35
2019-01-19T08:25:16.653Z,100652.73
2019-01-19T08:27:44.876Z,100653.30
2019-01-19T08:30:19.322Z,100652.30
2019-01-19T08:32:47.737Z,100648.41
2019-01-19T08:35:18.449Z,100652.72
2019-01-19T08:37:47.363Z,100654.08
2019-01-19T08:40:18.498Z,100653.93
2019-01-19T08:42:48.349Z,100654.12
2019-01-19T08:45:17.812Z,100654.84
2019-01-19T08:47:46.022Z,100647.00
2019-01-19T08:50:14.238Z,100650.45
2019-01-19T08:52:42.447Z,100655.67
2019-01-19T08:55:10.677Z,100648.06
2019-01-19T08:57:38.896Z,100645.49
2019-01-19T09:00:10.447Z,100650.94
2019-01-19T09:02:38.646Z,100646.36
2019-01-19T09:05:09.209Z,100653.09
2019-01-19T09:07:37.424Z,100650.34
2019-01-19T09:10:09.131Z,100648.22
2019-01-19T09:12:37.344Z,100647.43
2019-01-19T09:15:08.794Z,100646.38
2019-01-19T09:17:37.032Z,100646.86
2019-01-19T09:20:08.773Z,100644.48
2019-01-19T09:22:36.974Z,100647.13
2019-01-19T09:25:08.033Z,100641.97
2019-01-19T09:27:36.240Z,100637.88
2019-01-19T09:30:10.448Z,100636.16
2019-01-19T09:32:38.737Z,100643.16
2019-01-19T09:35:09.523Z,100633.21
2019-01-19T09:37:40.889Z,100638.97
2019-01-19T09:40:11.218Z,100639.22
2019-01-19T09:42:39.419Z,100643.16
2019-01-19T09:45:10.279Z,100638.42
2019-01-19T09:47:38.479Z,100634.33
2019-01-19T09:50:12.592Z,100639.33
2019-01-19T09:52:40.788Z,100640.19
2019-01-19T09:55:08.995Z,100633.66
2019-01-19T09:57:37.224Z,100634.33
2019-01-19T10:00:14.064Z,100629.87
2019-01-19T10:02:42.300Z,100630.89
2019-01-19T10:05:22.744Z,100629.22
2019-01-19T10:07:51.059Z,100622.97
2019-01-19T10:10:19.329Z,100621.95
2019-01-19T10:12:47.529Z,100624.83
2019-01-19T10:15:22.442Z,100623.69
2019-01-19T10:17:50.686Z,100618.42
2019-01-19T10:20:25.217Z,100617.39
2019-01-19T10:22:53.428Z,100609.63
2019-01-19T10:25:21.644Z,100607.30
2019-01-19T10:27:49.870Z,100599.14
2019-01-19T10:30:23.530Z,100600.01
2019-01-19T10:32:51.764Z,100600.34
2019-01-19T10:35:19.970Z,100601.16
2019-01-19T10:37:48.199Z,100597.52
2019-01-19T10:40:17.838Z,100597.73
2019-01-19T10:42:46.069Z,100587.17
2019-01-19T10:45:17.283Z,100591.52
2019-01-19T10:47:45.520Z,100586.72
2019-01-19T10:50:17.939Z,100585.36
2019-01-19T10:52:46.705Z,100579.95
2019-01-19T10:55:17.392Z,100572.30
2019-01-19T10:57:45.671Z,100567.30
2019-01-19T11:00:19.824Z,100559.17
2019-01-19T11:02:48.043Z,100551.70
2019-01-19T11:05:17.910Z,100554.17
2019-01-19T11:07:47.800Z,100541.19
2019-01-19T11:10:18.440Z,100541.37
2019-01-19T11:12:46.679Z,100530.02
2019-01-19T11:15:16.629Z,100531.70
2019-01-19T11:17:44.863Z,100520.09
2019-01-19T11:20:30.633Z,100519.75
2019-01-19T11:23:02.081Z,100497.24
2019-01-19T11:25:30.647Z,100498.77
2019-01-19T11:27:58.851Z,100486.64
2019-01-19T11:30:31.689Z,100497.73
2019-01-19T11:32:59.947Z,100480.82
2019-01-19T11:35:28.153Z,100480.50
2019-01-19T11:37:56.415Z,100475.09
2019-01-19T11:40:33.161Z,100465.54
2019-01-19T11:43:01.364Z,100471.86
2019-01-19T11:45:29.597Z,100468.66
2019-01-19T11:47:57.801Z,100456.00
2019-01-19T11:50:26.030Z,100458.22
2019-01-19T11:52:54.231Z,100446.27
2019-01-19T11:55:22.541Z,100457.19
2019-01-19T11:57:56.349Z,100456.31
2019-01-19T12:00:29.786Z,100447.75
2019-01-19T12:02:57.996Z,100447.75
2019-01-19T12:05:26.343Z,100442.91
2019-01-19T12:07:54.572Z,100426.22
2019-01-19T12:10:25.495Z,100435.26
2019-01-19T12:12:53.735Z,100437.45
2019-01-19T12:15:21.941Z,100430.30
2019-01-19T12:17:50.176Z,100422.61
2019-01-19T12:20:26.862Z,100416.45
2019-01-19T12:22:55.139Z,100428.03
2019-01-19T12:25:24.690Z,100406.91
2019-01-19T12:27:52.919Z,100412.16
2019-01-19T12:30:23.373Z,100402.97
2019-01-19T12:32:51.580Z,100401.55
2019-01-19T12:35:19.824Z,100414.22
2019-01-19T12:37:48.045Z,100397.48
2019-01-19T12:40:18.487Z,100397.31
2019-01-19T12:42:47.760Z,100393.77
2019-01-19T12:45:22.597Z,100386.63
2019-01-19T12:47:50.804Z,100388.73
2019-01-19T12:50:21.677Z,100396.18
2019-01-19T12:52:49.918Z,100388.77
2019-01-19T12:55:18.107Z,100388.77
2019-01-19T12:57:46.313Z,100383.57
2019-01-19T13:00:17.263Z,100384.38
2019-01-19T13:02:45.487Z,100375.46
2019-01-19T13:05:16.966Z,100383.31
2019-01-19T13:07:45.938Z,100377.15
2019-01-19T13:10:17.403Z,100375.55
2019-01-19T13:12:45.696Z,100380.20
2019-01-19T13:15:28.958Z,100368.44
2019-01-19T13:18:00.445Z,100371.79
2019-01-19T13:21:00.786Z,100371.91
2019-01-19T13:23:44.948Z,100363.94
2019-01-19T13:26:23.462Z,100357.61
2019-01-19T13:29:00.803Z,100358.86
2019-01-19T13:31:41.089Z,100355.16
2019-01-19T13:34:27.570Z,100351.58
2019-01-19T13:37:18.744Z,100351.92
2019-01-19T13:39:50.202Z,100347.50
2019-01-19T13:42:24.594Z,100353.77
2019-01-19T13:45:11.082Z,100350.66
2019-01-19T13:47:45.270Z,100357.46
2019-01-19T13:50:25.938Z,100345.36
2019-01-19T13:53:19.950Z,100346.56
2019-01-19T13:56:11.230Z,100348.42
2019-01-19T13:58:48.427Z,100348.73
2019-01-19T14:01:32.224Z,100340.94
2019-01-19T14:04:03.690Z,100343.16
2019-01-19T14:06:38.078Z,100339.14
2019-01-19T14:09:26.146Z,100342.95
2019-01-19T14:12:09.780Z,100339.73
2019-01-19T14:14:56.514Z,100334.16
2019-01-19T14:17:45.266Z,100340.02
2019-01-19T14:20:28.048Z,100339.86
2019-01-19T14:23:08.389Z,100338.87
2019-01-19T14:26:05.466Z,100338.67
2019-01-19T14:28:54.416Z,100338.87
2019-01-19T14:32:01.168Z,100338.05
2019-01-19T14:34:32.660Z,100340.07
2019-01-19T14:37:16.005Z,100336.27
2019-01-19T14:39:47.514Z,100338.67
2019-01-19T14:42:34.400Z,100329.36
2019-01-19T14:45:22.803Z,100327.50
2019-01-19T14:48:02.965Z,100325.94
2019-01-19T14:51:00.207Z,100326.30
2019-01-19T14:53:31.712Z,100326.83
2019-01-19T14:56:09.162Z,100318.65
2019-01-19T14:58:43.116Z,100321.55
2019-01-19T15:01:17.478Z,100327.20
2019-01-19T15:04:03.998Z,100324.63
2019-01-19T15:06:47.255Z,100322.41
2019-01-19T15:09:21.418Z,100320.88
2019-01-19T15:12:18.065Z,100325.49
2019-01-19T15:14:58.976Z,100321.34
2019-01-19T15:17:42.351Z,100314.94
2019-01-19T15:20:19.393Z,100326.27
2019-01-19T15:23:08.926Z,100322.88
2019-01-19T15:25:46.262Z,100321.51
2019-01-19T15:28:32.742Z,100318.25
2019-01-19T15:31:10.140Z,100311.80
2019-01-19T15:33:44.559Z,100311.50
2019-01-19T15:36:31.199Z,100314.89
2019-01-19T15:39:12.303Z,100301.61
2019-01-19T15:42:08.209Z,100307.07
2019-01-19T15:44:39.699Z,100301.95
2019-01-19T15:47:19.929Z,100310.66
2019-01-19T15:50:00.483Z,100305.39
2019-01-19T15:52:47.038Z,100315.27
2019-01-19T15:55:21.034Z,100311.35
2019-01-19T15:58:04.476Z,100309.28
2019-01-19T16:01:12.193Z,100307.95
2019-01-19T16:03:49.269Z,100303.52
2019-01-19T16:06:38.830Z,100307.42
2019-01-19T16:09:18.354Z,100306.46
2019-01-19T16:11:49.388Z,100299.27
2019-01-19T16:14:23.775Z,100301.47
2019-01-19T16:17:01.343Z,100305.39
2019-01-19T16:19:51.004Z,100307.95
2019-01-19T16:22:34.227Z,100299.44
2019-01-19T16:25:14.947Z,100309.31
2019-01-19T16:28:10.157Z,100305.05
2019-01-19T16:31:04.025Z,100310.48
2019-01-19T16:33:41.327Z,100309.81
2019-01-19T16:36:18.491Z,100319.88
2019-01-19T16:39:06.253Z,100324.86
2019-01-19T16:41:40.728Z,100323.10
2019-01-19T16:44:14.981Z,100329.76
2019-01-19T16:47:12.073Z,100328.23
2019-01-19T16:49:46.187Z,100329.25
2019-01-19T16:52:26.454Z,100320.38
2019-01-19T16:55:15.836Z,100321.91
2019-01-19T16:57:50.686Z,100317.48
2019-01-19T17:00:41.938Z,100321.91
2019-01-19T17:03:25.485Z,100321.30
2019-01-19T17:06:18.245Z,100320.98
2019-01-19T17:08:52.323Z,100320.24
2019-01-19T17:11:32.767Z,100317.00
2019-01-19T17:14:22.342Z,100313.41
2019-01-19T17:16:56.551Z,100303.19
2019-01-19T17:19:28.029Z,100312.57
2019-01-19T17:22:05.676Z,100304.71
2019-01-19T17:24:57.641Z,100308.83
2019-01-19T17:27:29.131Z,100306.46
2019-01-19T17:30:16.938Z,100315.31
2019-01-19T17:32:51.180Z,100305.75
2019-01-19T17:35:25.136Z,100307.29
2019-01-19T17:37:56.656Z,100303.20
2019-01-19T17:40:46.245Z,100302.02
2019-01-19T17:43:29.699Z,100300.48
2019-01-19T17:46:15.187Z,100299.97
2019-01-19T17:49:16.896Z,100299.27
2019-01-19T17:51:53.848Z,100294.67
2019-01-19T17:54:58.379Z,100300.12
2019-01-19T17:57:35.499Z,100300.16
2019-01-19T18:00:09.689Z,100302.58
2019-01-19T18:02:41.183Z,100303.94
2019-01-19T18:05:21.538Z,100304.97
2019-01-19T18:08:18.669Z,100296.60
2019-01-19T18:11:08.221Z,100294.55
2019-01-19T18:13:54.800Z,100307.33
2019-01-19T18:16:37.937Z,100302.75
2019-01-19T18:19:18.305Z,100300.86
2019-01-19T18:21:55.299Z,100301.94
2019-01-19T18:24:48.139Z,100304.39
2019-01-19T18:27:19.629Z,100306.59
2019-01-19T18:30:10.437Z,100305.78
2019-01-19T18:33:09.171Z,100297.92
2019-01-19T18:35:52.617Z,100302.74
2019-01-19T18:38:33.115Z,100299.48
2019-01-19T18:41:10.989Z,100299.48
2019-01-19T18:43:42.453Z,100296.25
2019-01-19T18:46:39.054Z,100294.55
2019-01-19T18:49:35.914Z,100288.92
2019-01-19T18:52:12.966Z,100293.34
2019-01-19T18:54:44.433Z,100295.23
2019-01-19T18:57:31.038Z,100291.30
2019-01-19T19:00:11.591Z,100294.20
2019-01-19T19:02:51.927Z,100292.83
2019-01-19T19:05:53.520Z,100293.20
2019-01-19T19:08:36.745Z,100283.30
2019-01-19T19:11:26.240Z,100285.97
2019-01-19T19:14:03.510Z,100283.77
2019-01-19T19:16:41.176Z,100285.66
2019-01-19T19:19:12.600Z,100292.48
2019-01-19T19:21:49.635Z,100292.31
2019-01-19T19:24:33.002Z,100295.91
2019-01-19T19:27:37.585Z,100296.77
2019-01-19T19:30:11.920Z,100298.14
2019-01-19T19:32:55.343Z,100292.31
2019-01-19T19:35:46.405Z,100296.58
2019-01-19T19:38:37.505Z,100283.63
2019-01-19T19:41:24.473Z,100285.51
2019-01-19T19:44:01.991Z,100287.39
2019-01-19T19:46:36.556Z,100286.36
2019-01-19T19:49:11.090Z,100286.36
2019-01-19T19:51:55.165Z,100285.00
2019-01-19T19:54:23.751Z,100283.09
2019-01-19T19:56:52.227Z,100287.38
2019-01-19T19:59:20.425Z,100285.00
2019-01-19T20:01:48.644Z,100281.23
2019-01-19T20:04:16.852Z,100287.38
2019-01-19T20:06:45.085Z,100284.30
2019-01-19T20:09:13.307Z,100284.63
2019-01-19T20:11:41.682Z,100288.34
2019-01-19T20:14:09.914Z,100278.02
2019-01-19T20:16:38.105Z,100279.20
2019-01-19T20:19:06.332Z,100277.03
2019-01-19T20:21:34.559Z,100276.02
2019-01-19T20:24:02.799Z,100277.58
2019-01-19T20:26:30.986Z,100276.38
2019-01-19T20:28:59.215Z,100280.66
2019-01-19T20:31:27.410Z,100276.73
2019-01-19T20:33:55.631Z,100276.73
2019-01-19T20:36:23.879Z,100278.44
2019-01-19T20:38:52.077Z,100277.94
2019-01-19T20:41:20.264Z,100274.87
2019-01-19T20:43:48.471Z,100277.44
2019-01-19T20:46:16.719Z,100284.25
2019-01-19T20:48:45.031Z,100279.10
2019-01-19T20:51:13.358Z,100275.01
2019-01-19T20:53:41.523Z,100275.55
2019-01-19T20:56:09.727Z,100274.67
2019-01-19T20:58:37.932Z,100278.27
2019-01-19T21:01:06.153Z,100278.44
2019-01-19T21:03:34.357Z,100278.77
2019-01-19T21:06:02.593Z,100280.13
2019-01-19T21:08:30.796Z,100279.63
2019-01-19T21:10:59.025Z,100283.89
2019-01-19T21:13:27.251Z,100281.17
2019-01-19T21:15:55.454Z,100280.30
2019-01-19T21:18:23.685Z,100285.06
2019-01-19T21:20:51.880Z,100282.34
2019-01-19T21:23:20.107Z,100276.05
2019-01-19T21:25:48.306Z,100275.02
2019-01-19T21:28:16.528Z,100274.69
2019-01-19T21:30:44.728Z,100274.15
2019-01-19T21:33:12.960Z,100270.39
2019-01-19T21:35:41.174Z,100268.87
2019-01-19T21:38:09.377Z,100274.16
2019-01-19T21:40:39.189Z,100269.20
2019-01-19T21:43:07.547Z,100265.64
2019-01-19T21:45:35.800Z,100267.50
2019-01-19T21:48:04.004Z,100264.45
2019-01-19T21:50:32.234Z,100261.34
2019-01-19T21:53:00.446Z,100258.29
2019-01-19T21:55:28.654Z,100253.33
2019-01-19T21:57:56.892Z,100258.29
2019-01-19T22:00:25.106Z,100252.50
2019-01-19T22:02:53.340Z,100258.63
2019-01-19T22:05:21.540Z,100257.43
2019-01-19T22:07:49.778Z,100256.56
2019-01-19T22:10:22.918Z,100255.70
2019-01-19T22:12:51.298Z,100256.06
2019-01-19T22:15:19.681Z,100252.14
2019-01-19T22:17:47.925Z,100252.14
2019-01-19T22:20:17.577Z,100254.88
2019-01-19T22:22:45.758Z,100248.22
2019-01-19T22:25:14.156Z,100250.78
2019-01-19T22:27:43.996Z,100254.51
2019-01-19T22:30:20.826Z,100253.84
2019-01-19T22:32:50.629Z,100252.81
2019-01-19T22:35:18.827Z,100240.54
2019-01-19T22:37:47.074Z,100249.39
2019-01-19T22:40:17.300Z,100247.86
2019-01-19T22:42:45.978Z,100256.73
2019-01-19T22:45:16.619Z,100251.95
2019-01-19T22:47:44.822Z,100252.45
2019-01-19T22:50:15.055Z,100254.52
2019-01-19T22:52:43.280Z,100249.06
2019-01-19T22:55:12.333Z,100255.52
2019-01-19T22:57:40.550Z,100252.12
2019-01-19T23:00:40.442Z,100257.41
2019-01-19T23:03:08.734Z,100254.15
2019-01-19T23:05:36.938Z,100252.12
2019-01-19T23:08:05.181Z,100251.76
2019-01-19T23:10:33.386Z,100256.21
2019-01-19T23:13:01.613Z,100256.55
2019-01-19T23:15:29.837Z,100252.12
2019-01-19T23:17:58.043Z,100248.36
2019-01-19T23:20:26.253Z,100248.03
2019-01-19T23:22:54.863Z,100252.95
2019-01-19T23:25:23.056Z,100253.48
2019-01-19T23:27:51.280Z,100245.80
2019-01-19T23:30:19.492Z,100244.94
2019-01-19T23:32:47.704Z,100235.92
2019-01-19T23:35:15.927Z,100236.76
2019-01-19T23:37:44.139Z,100235.23
2019-01-19T23:40:13.469Z,100237.29
2019-01-19T23:42:47.035Z,100236.42
2019-01-19T23:45:11.641Z,100240.02
2019-01-19T23:47:39.876Z,100237.79
2019-01-19T23:50:11.156Z,100231.47
2019-01-19T23:52:39.378Z,100225.84
2019-01-19T23:55:07.578Z,100235.72
2019-01-19T23:57:35.796Z,100234.36
